Portada
METAR-TAF:

METAR-TAF

Aeroports :

Cancun, Mèxic

latitud: 21-02N, longitud: 086-52W, altitud: 5 m

Observació

L'informe es va fer fa 35 minuts, a les 18:45 UTC
Vent 10 kt del Sud-Est
Temperatura 32°C
Humitat 67%
Pressió 1016 hPa
Visibilitat: 11.3 km
Núvols disperses a una alçada de 1500 ft

METAR: MMUN 281845Z 13010KT 7SM SCT015 32/25 A2999 RMK 8/100 MDT CU

Hora: 14:20 (19:20 UTC)

Pronòstic

L'informe es va fer fa 2 hores i 8 minuts, a les 17:12 UTC
Pronòstic vàlid del 28 a les 18 UTC al 29 a les 18 UTC
Vent 15 kt del Est/Sud-Est
Visibilitat: 10 km
Núvols disperses a una alçada de 1500 ft
Evolucionant progressivament
l' 29 a les 03 UTC al 29 a les 04 UTC
Vent 10 kt del Sud-Est
A partir de les 29 a les 1700 UTC
Vent 10 kt del Est
Visibilitat: 10 km
Núvols disperses a una alçada de 1500 ft

TAF: MMUN 281712Z 2818/2918 12015KT P6SM SCT015 TX33/2820Z TN28/2912Z BECMG 2903/2904 13010KT FM291700 10010KT P6SM SCT015

Observacions i pronòstics meteorològics de més de 4000 aeroports (METAR i TAF).

Les estacions disponibles són els punts grocs i vermells al mapa.

Posi el ratolí al punt desitjat per veure el nom de l'estació.

Feu clic per veure les observacions i els pronòstics meteorològics.

Per canviar el mapa: feu clic els botons verds amb una creu de color negre per apropar; al botó verd amb un guió per allunyar la imatge; o en les fletxes verdes per a mapes adjacents.


METAR-TAF: